sensor_id;sensor_type;location;lat;lon;timestamp;temperature;humidity
27200;DHT22;14714;48.106;11.546;2024-03-08T00:00:32;1.10;99.90
27200;DHT22;14714;48.106;11.546;2024-03-08T00:03:01;1.10;99.90
27200;DHT22;14714;48.106;11.546;2024-03-08T00:05:32;1.10;99.90
27200;DHT22;14714;48.106;11.546;2024-03-08T00:08:00;1.10;99.90
27200;DHT22;14714;48.106;11.546;2024-03-08T00:10:29;1.00;99.90
27200;DHT22;14714;48.106;11.546;2024-03-08T00:12:57;1.00;99.90
27200;DHT22;14714;48.106;11.546;2024-03-08T00:15:26;1.00;99.90
27200;DHT22;14714;48.106;11.546;2024-03-08T00:17:57;1.00;99.90
27200;DHT22;14714;48.106;11.546;2024-03-08T00:20:26;0.90;99.90
27200;DHT22;14714;48.106;11.546;2024-03-08T00:22:55;0.90;99.90
27200;DHT22;14714;48.106;11.546;2024-03-08T00:25:27;0.80;99.90
27200;DHT22;14714;48.106;11.546;2024-03-08T00:27:55;0.80;99.90
27200;DHT22;14714;48.106;11.546;2024-03-08T00:30:27;0.70;99.90
27200;DHT22;14714;48.106;11.546;2024-03-08T00:32:55;0.70;99.90
27200;DHT22;14714;48.106;11.546;2024-03-08T00:35:24;0.70;99.90
27200;DHT22;14714;48.106;11.546;2024-03-08T00:37:57;0.70;99.90
27200;DHT22;14714;48.106;11.546;2024-03-08T00:40:26;0.60;99.90
27200;DHT22;14714;48.106;11.546;2024-03-08T00:42:59;0.60;99.90
27200;DHT22;14714;48.106;11.546;2024-03-08T00:45:27;0.60;99.90
27200;DHT22;14714;48.106;11.546;2024-03-08T00:47:56;0.60;99.90
27200;DHT22;14714;48.106;11.546;2024-03-08T00:50:25;0.50;99.90
27200;DHT22;14714;48.106;11.546;2024-03-08T00:52:55;0.50;99.90
27200;DHT22;14714;48.106;11.546;2024-03-08T00:55:23;0.50;99.90
27200;DHT22;14714;48.106;11.546;2024-03-08T00:57:53;0.50;99.90
27200;DHT22;14714;48.106;11.546;2024-03-08T01:00:24;0.50;99.90
27200;DHT22;14714;48.106;11.546;2024-03-08T01:02:53;0.50;99.90
27200;DHT22;14714;48.106;11.546;2024-03-08T01:05:24;0.40;99.90
27200;DHT22;14714;48.106;11.546;2024-03-08T01:07:52;0.40;99.90
27200;DHT22;14714;48.106;11.546;2024-03-08T01:10:22;0.40;99.90
27200;DHT22;14714;48.106;11.546;2024-03-08T01:12:54;0.40;99.90
27200;DHT22;14714;48.106;11.546;2024-03-08T01:15:24;0.40;99.90
27200;DHT22;14714;48.106;11.546;2024-03-08T01:17:52;0.40;99.90
27200;DHT22;14714;48.106;11.546;2024-03-08T01:20:21;0.40;99.90
27200;DHT22;14714;48.106;11.546;2024-03-08T01:22:51;0.40;99.90
27200;DHT22;14714;48.106;11.546;2024-03-08T01:25:19;0.40;99.90
27200;DHT22;14714;48.106;11.546;2024-03-08T01:27:51;0.40;99.90
27200;DHT22;14714;48.106;11.546;2024-03-08T01:30:21;0.40;99.90
27200;DHT22;14714;48.106;11.546;2024-03-08T01:32:51;0.40;99.90
27200;DHT22;14714;48.106;11.546;2024-03-08T01:35:21;0.40;99.90
27200;DHT22;14714;48.106;11.546;2024-03-08T01:37:50;0.30;99.90
27200;DHT22;14714;48.106;11.546;2024-03-08T01:40:20;0.30;99.90
27200;DHT22;14714;48.106;11.546;2024-03-08T01:42:50;0.30;99.90
27200;DHT22;14714;48.106;11.546;2024-03-08T01:45:19;0.30;99.90
27200;DHT22;14714;48.106;11.546;2024-03-08T01:47:48;0.40;99.90
27200;DHT22;14714;48.106;11.546;2024-03-08T01:50:18;0.40;99.90
27200;DHT22;14714;48.106;11.546;2024-03-08T01:52:47;0.40;99.90
27200;DHT22;14714;48.106;11.546;2024-03-08T01:55:16;0.30;99.90
27200;DHT22;14714;48.106;11.546;2024-03-08T01:57:46;0.30;99.90
27200;DHT22;14714;48.106;11.546;2024-03-08T02:00:15;0.40;99.90
27200;DHT22;14714;48.106;11.546;2024-03-08T02:02:43;0.40;99.90
27200;DHT22;14714;48.106;11.546;2024-03-08T02:05:14;0.30;99.90
27200;DHT22;14714;48.106;11.546;2024-03-08T02:07:42;0.30;99.90
27200;DHT22;14714;48.106;11.546;2024-03-08T02:10:12;0.30;99.90
27200;DHT22;14714;48.106;11.546;2024-03-08T02:12:41;0.30;99.90
27200;DHT22;14714;48.106;11.546;2024-03-08T02:15:12;0.30;99.90
27200;DHT22;14714;48.106;11.546;2024-03-08T02:17:42;0.30;99.90
27200;DHT22;14714;48.106;11.546;2024-03-08T02:20:11;0.30;99.90
27200;DHT22;14714;48.106;11.546;2024-03-08T02:22:41;0.30;99.90
27200;DHT22;14714;48.106;11.546;2024-03-08T02:25:10;0.30;99.90
27200;DHT22;14714;48.106;11.546;2024-03-08T02:27:39;0.30;99.90
27200;DHT22;14714;48.106;11.546;2024-03-08T02:30:09;0.20;99.90
27200;DHT22;14714;48.106;11.546;2024-03-08T02:32:40;0.20;99.90
27200;DHT22;14714;48.106;11.546;2024-03-08T02:35:09;0.20;99.90
27200;DHT22;14714;48.106;11.546;2024-03-08T02:37:38;0.20;99.90
27200;DHT22;14714;48.106;11.546;2024-03-08T02:40:10;0.20;99.90
27200;DHT22;14714;48.106;11.546;2024-03-08T02:42:40;0.20;99.90
27200;DHT22;14714;48.106;11.546;2024-03-08T02:45:09;0.20;99.90
27200;DHT22;14714;48.106;11.546;2024-03-08T02:47:38;0.20;99.90
27200;DHT22;14714;48.106;11.546;2024-03-08T02:50:07;0.10;99.90
27200;DHT22;14714;48.106;11.546;2024-03-08T02:52:39;0.20;99.90
27200;DHT22;14714;48.106;11.546;2024-03-08T02:55:09;0.10;99.90
27200;DHT22;14714;48.106;11.546;2024-03-08T02:57:40;0.10;99.90
27200;DHT22;14714;48.106;11.546;2024-03-08T03:00:09;0.10;99.90
27200;DHT22;14714;48.106;11.546;2024-03-08T03:02:37;0.10;99.90
27200;DHT22;14714;48.106;11.546;2024-03-08T03:05:06;0.10;99.90
27200;DHT22;14714;48.106;11.546;2024-03-08T03:07:38;0.10;99.90
27200;DHT22;14714;48.106;11.546;2024-03-08T03:10:11;0.10;99.90
27200;DHT22;14714;48.106;11.546;2024-03-08T03:12:50;0.10;99.90
27200;DHT22;14714;48.106;11.546;2024-03-08T03:15:38;0.10;99.90
27200;DHT22;14714;48.106;11.546;2024-03-08T03:18:10;0.10;99.90
27200;DHT22;14714;48.106;11.546;2024-03-08T03:20:40;0.10;99.90
27200;DHT22;14714;48.106;11.546;2024-03-08T03:23:10;0.10;99.90
27200;DHT22;14714;48.106;11.546;2024-03-08T03:25:42;0.10;99.90
27200;DHT22;14714;48.106;11.546;2024-03-08T03:28:11;0.10;99.90
27200;DHT22;14714;48.106;11.546;2024-03-08T03:30:45;0.00;99.90
27200;DHT22;14714;48.106;11.546;2024-03-08T03:33:14;0.00;99.90
27200;DHT22;14714;48.106;11.546;2024-03-08T03:35:44;0.00;99.90
27200;DHT22;14714;48.106;11.546;2024-03-08T03:38:13;0.00;99.90
27200;DHT22;14714;48.106;11.546;2024-03-08T03:40:42;0.00;99.90
27200;DHT22;14714;48.106;11.546;2024-03-08T03:43:13;0.00;99.90
27200;DHT22;14714;48.106;11.546;2024-03-08T03:45:42;0.00;99.90
27200;DHT22;14714;48.106;11.546;2024-03-08T03:48:12;0.00;99.90
27200;DHT22;14714;48.106;11.546;2024-03-08T03:50:41;0.00;99.90
27200;DHT22;14714;48.106;11.546;2024-03-08T03:53:10;0.00;99.90
27200;DHT22;14714;48.106;11.546;2024-03-08T03:55:41;0.00;99.90
27200;DHT22;14714;48.106;11.546;2024-03-08T03:58:10;0.00;99.90
27200;DHT22;14714;48.106;11.546;2024-03-08T04:00:39;0.00;99.90
27200;DHT22;14714;48.106;11.546;2024-03-08T04:03:08;-0.10;99.90
27200;DHT22;14714;48.106;11.546;2024-03-08T04:05:37;-0.10;99.90
27200;DHT22;14714;48.106;11.546;2024-03-08T04:08:07;-0.10;99.90
27200;DHT22;14714;48.106;11.546;2024-03-08T04:10:38;-0.10;99.90
27200;DHT22;14714;48.106;11.546;2024-03-08T04:13:06;-0.10;99.90
27200;DHT22;14714;48.106;11.546;2024-03-08T04:15:35;-0.10;99.90
27200;DHT22;14714;48.106;11.546;2024-03-08T04:18:04;-0.10;99.90
27200;DHT22;14714;48.106;11.546;2024-03-08T04:20:34;-0.10;99.90
27200;DHT22;14714;48.106;11.546;2024-03-08T04:23:03;-0.10;99.90
27200;DHT22;14714;48.106;11.546;2024-03-08T04:25:32;-0.10;99.90
27200;DHT22;14714;48.106;11.546;2024-03-08T04:28:01;-0.10;99.90
27200;DHT22;14714;48.106;11.546;2024-03-08T04:30:32;-0.10;99.90
27200;DHT22;14714;48.106;11.546;2024-03-08T04:33:00;-0.10;99.90
27200;DHT22;14714;48.106;11.546;2024-03-08T04:35:31;-0.10;99.90
27200;DHT22;14714;48.106;11.546;2024-03-08T04:38:00;-0.10;99.90
27200;DHT22;14714;48.106;11.546;2024-03-08T04:40:33;-0.10;99.90
27200;DHT22;14714;48.106;11.546;2024-03-08T04:43:02;-0.10;99.90
27200;DHT22;14714;48.106;11.546;2024-03-08T04:45:32;-0.10;99.90
27200;DHT22;14714;48.106;11.546;2024-03-08T04:48:00;-0.10;99.90
27200;DHT22;14714;48.106;11.546;2024-03-08T04:50:31;-0.10;99.90
27200;DHT22;14714;48.106;11.546;2024-03-08T04:53:00;-0.10;99.90
27200;DHT22;14714;48.106;11.546;2024-03-08T04:55:28;-0.10;99.90
27200;DHT22;14714;48.106;11.546;2024-03-08T04:57:57;-0.10;99.90
27200;DHT22;14714;48.106;11.546;2024-03-08T05:00:28;-0.10;99.90
27200;DHT22;14714;48.106;11.546;2024-03-08T05:02:58;0.00;99.90
27200;DHT22;14714;48.106;11.546;2024-03-08T05:05:26;0.00;99.90
27200;DHT22;14714;48.106;11.546;2024-03-08T05:07:57;0.00;99.90
27200;DHT22;14714;48.106;11.546;2024-03-08T05:10:28;0.00;99.90
27200;DHT22;14714;48.106;11.546;2024-03-08T05:13:00;0.00;99.90
27200;DHT22;14714;48.106;11.546;2024-03-08T05:15:28;0.10;99.90
27200;DHT22;14714;48.106;11.546;2024-03-08T05:17:57;0.10;99.90
27200;DHT22;14714;48.106;11.546;2024-03-08T05:20:26;0.10;99.90
27200;DHT22;14714;48.106;11.546;2024-03-08T05:22:59;0.10;99.90
27200;DHT22;14714;48.106;11.546;2024-03-08T05:25:28;0.20;99.90
27200;DHT22;14714;48.106;11.546;2024-03-08T05:27:58;0.20;99.90
27200;DHT22;14714;48.106;11.546;2024-03-08T05:30:26;0.20;99.90
27200;DHT22;14714;48.106;11.546;2024-03-08T05:32:55;0.20;99.90
27200;DHT22;14714;48.106;11.546;2024-03-08T05:35:26;0.20;99.90
27200;DHT22;14714;48.106;11.546;2024-03-08T05:37:55;0.20;99.90
27200;DHT22;14714;48.106;11.546;2024-03-08T05:40:26;0.20;99.90
27200;DHT22;14714;48.106;11.546;2024-03-08T05:42:54;0.20;99.90
27200;DHT22;14714;48.106;11.546;2024-03-08T05:45:23;0.30;99.90
27200;DHT22;14714;48.106;11.546;2024-03-08T05:47:53;0.30;99.90
27200;DHT22;14714;48.106;11.546;2024-03-08T05:50:22;0.30;99.90
27200;DHT22;14714;48.106;11.546;2024-03-08T05:52:53;0.30;99.90
27200;DHT22;14714;48.106;11.546;2024-03-08T05:55:21;0.40;99.90
27200;DHT22;14714;48.106;11.546;2024-03-08T05:57:52;0.40;99.90
27200;DHT22;14714;48.106;11.546;2024-03-08T06:00:21;0.40;99.90
27200;DHT22;14714;48.106;11.546;2024-03-08T06:02:50;0.40;99.90
27200;DHT22;14714;48.106;11.546;2024-03-08T06:05:20;0.50;99.90
27200;DHT22;14714;48.106;11.546;2024-03-08T06:07:51;0.50;99.90
27200;DHT22;14714;48.106;11.546;2024-03-08T06:10:21;0.60;99.90
27200;DHT22;14714;48.106;11.546;2024-03-08T06:12:50;0.60;99.90
27200;DHT22;14714;48.106;11.546;2024-03-08T06:15:20;0.70;99.90
27200;DHT22;14714;48.106;11.546;2024-03-08T06:17:49;0.70;99.90
27200;DHT22;14714;48.106;11.546;2024-03-08T06:20:21;0.80;99.90
27200;DHT22;14714;48.106;11.546;2024-03-08T06:22:53;0.90;99.90
27200;DHT22;14714;48.106;11.546;2024-03-08T06:25:22;0.90;99.90
27200;DHT22;14714;48.106;11.546;2024-03-08T06:27:55;0.90;99.90
27200;DHT22;14714;48.106;11.546;2024-03-08T06:30:32;0.90;99.90
27200;DHT22;14714;48.106;11.546;2024-03-08T06:33:06;1.00;99.90
27200;DHT22;14714;48.106;11.546;2024-03-08T06:35:34;1.10;99.90
27200;DHT22;14714;48.106;11.546;2024-03-08T06:38:06;1.10;99.90
27200;DHT22;14714;48.106;11.546;2024-03-08T06:40:35;1.20;99.90
27200;DHT22;14714;48.106;11.546;2024-03-08T06:43:08;1.20;99.90
27200;DHT22;14714;48.106;11.546;2024-03-08T06:45:44;1.20;99.90
27200;DHT22;14714;48.106;11.546;2024-03-08T06:48:19;1.30;99.90
27200;DHT22;14714;48.106;11.546;2024-03-08T06:50:49;1.30;99.90
27200;DHT22;14714;48.106;11.546;2024-03-08T06:53:30;1.30;99.90
27200;DHT22;14714;48.106;11.546;2024-03-08T06:55:59;1.30;99.90
27200;DHT22;14714;48.106;11.546;2024-03-08T06:58:30;1.30;99.90
27200;DHT22;14714;48.106;11.546;2024-03-08T07:01:29;1.30;99.90
27200;DHT22;14714;48.106;11.546;2024-03-08T07:04:03;1.30;99.90
27200;DHT22;14714;48.106;11.546;2024-03-08T07:06:32;1.30;99.90
27200;DHT22;14714;48.106;11.546;2024-03-08T07:09:02;1.30;99.90
27200;DHT22;14714;48.106;11.546;2024-03-08T07:11:32;1.30;99.90
27200;DHT22;14714;48.106;11.546;2024-03-08T07:14:02;1.30;99.90
27200;DHT22;14714;48.106;11.546;2024-03-08T07:16:34;1.40;99.90
27200;DHT22;14714;48.106;11.546;2024-03-08T07:19:14;1.40;99.90
27200;DHT22;14714;48.106;11.546;2024-03-08T07:21:47;1.50;99.90
27200;DHT22;14714;48.106;11.546;2024-03-08T07:24:17;1.60;99.90
27200;DHT22;14714;48.106;11.546;2024-03-08T07:27:07;1.60;99.90
27200;DHT22;14714;48.106;11.546;2024-03-08T07:29:37;1.70;99.90
27200;DHT22;14714;48.106;11.546;2024-03-08T07:32:11;1.80;99.90
27200;DHT22;14714;48.106;11.546;2024-03-08T07:35:03;2.00;99.90
27200;DHT22;14714;48.106;11.546;2024-03-08T07:37:34;2.10;99.90
27200;DHT22;14714;48.106;11.546;2024-03-08T07:40:19;2.10;99.90
27200;DHT22;14714;48.106;11.546;2024-03-08T07:42:52;2.10;99.90
27200;DHT22;14714;48.106;11.546;2024-03-08T07:45:23;2.20;99.90
27200;DHT22;14714;48.106;11.546;2024-03-08T07:47:51;2.20;99.90
27200;DHT22;14714;48.106;11.546;2024-03-08T07:50:21;2.20;99.90
27200;DHT22;14714;48.106;11.546;2024-03-08T07:52:50;2.30;99.90
27200;DHT22;14714;48.106;11.546;2024-03-08T07:55:19;2.30;99.90
27200;DHT22;14714;48.106;11.546;2024-03-08T07:57:50;2.40;99.90
27200;DHT22;14714;48.106;11.546;2024-03-08T08:00:19;2.50;99.90
27200;DHT22;14714;48.106;11.546;2024-03-08T08:02:50;2.50;99.90
27200;DHT22;14714;48.106;11.546;2024-03-08T08:05:18;2.70;99.90
27200;DHT22;14714;48.106;11.546;2024-03-08T08:07:47;2.90;99.90
27200;DHT22;14714;48.106;11.546;2024-03-08T08:10:18;3.00;99.90
27200;DHT22;14714;48.106;11.546;2024-03-08T08:12:50;3.10;99.90
27200;DHT22;14714;48.106;11.546;2024-03-08T08:15:19;3.30;99.90
27200;DHT22;14714;48.106;11.546;2024-03-08T08:17:48;3.60;99.90
27200;DHT22;14714;48.106;11.546;2024-03-08T08:20:17;3.80;99.90
27200;DHT22;14714;48.106;11.546;2024-03-08T08:22:47;3.80;99.90
27200;DHT22;14714;48.106;11.546;2024-03-08T08:25:16;3.90;99.90
27200;DHT22;14714;48.106;11.546;2024-03-08T08:27:48;4.00;99.90
27200;DHT22;14714;48.106;11.546;2024-03-08T08:30:17;4.10;99.90
27200;DHT22;14714;48.106;11.546;2024-03-08T08:32:46;4.30;99.90
27200;DHT22;14714;48.106;11.546;2024-03-08T08:35:17;4.70;99.90
27200;DHT22;14714;48.106;11.546;2024-03-08T08:37:47;5.00;99.90
27200;DHT22;14714;48.106;11.546;2024-03-08T08:40:16;5.10;99.90
27200;DHT22;14714;48.106;11.546;2024-03-08T08:42:46;5.10;99.90
27200;DHT22;14714;48.106;11.546;2024-03-08T08:45:16;5.00;99.90
27200;DHT22;14714;48.106;11.546;2024-03-08T08:47:52;5.20;99.90
27200;DHT22;14714;48.106;11.546;2024-03-08T08:50:20;5.40;99.90
27200;DHT22;14714;48.106;11.546;2024-03-08T08:52:51;5.70;99.90
27200;DHT22;14714;48.106;11.546;2024-03-08T08:55:21;5.90;99.90
27200;DHT22;14714;48.106;11.546;2024-03-08T08:57:53;6.20;99.90
27200;DHT22;14714;48.106;11.546;2024-03-08T09:00:22;6.70;99.90
27200;DHT22;14714;48.106;11.546;2024-03-08T09:02:55;7.20;99.90
27200;DHT22;14714;48.106;11.546;2024-03-08T09:05:25;7.90;99.90
27200;DHT22;14714;48.106;11.546;2024-03-08T09:07:54;8.60;99.90
27200;DHT22;14714;48.106;11.546;2024-03-08T09:10:23;9.50;99.90
27200;DHT22;14714;48.106;11.546;2024-03-08T09:12:55;10.70;99.90
27200;DHT22;14714;48.106;11.546;2024-03-08T09:15:23;12.30;99.40
27200;DHT22;14714;48.106;11.546;2024-03-08T09:17:56;13.70;94.50
27200;DHT22;14714;48.106;11.546;2024-03-08T09:20:25;14.90;89.40
27200;DHT22;14714;48.106;11.546;2024-03-08T09:22:54;16.20;78.70
27200;DHT22;14714;48.106;11.546;2024-03-08T09:25:23;17.50;72.90
27200;DHT22;14714;48.106;11.546;2024-03-08T09:27:52;18.60;59.60
27200;DHT22;14714;48.106;11.546;2024-03-08T09:30:24;18.40;58.40
27200;DHT22;14714;48.106;11.546;2024-03-08T09:32:52;18.40;57.90
27200;DHT22;14714;48.106;11.546;2024-03-08T09:35:24;18.60;57.40
27200;DHT22;14714;48.106;11.546;2024-03-08T09:37:53;19.00;55.30
27200;DHT22;14714;48.106;11.546;2024-03-08T09:40:22;19.10;53.20
27200;DHT22;14714;48.106;11.546;2024-03-08T09:42:52;19.10;53.50
27200;DHT22;14714;48.106;11.546;2024-03-08T09:45:21;19.70;51.50
27200;DHT22;14714;48.106;11.546;2024-03-08T09:47:56;20.00;49.90
27200;DHT22;14714;48.106;11.546;2024-03-08T09:50:26;19.80;48.80
27200;DHT22;14714;48.106;11.546;2024-03-08T09:52:55;19.60;50.90
27200;DHT22;14714;48.106;11.546;2024-03-08T09:55:27;19.90;49.80
27200;DHT22;14714;48.106;11.546;2024-03-08T09:58:05;20.20;49.40
27200;DHT22;14714;48.106;11.546;2024-03-08T10:01:04;20.30;48.00
27200;DHT22;14714;48.106;11.546;2024-03-08T10:03:35;20.10;47.90
27200;DHT22;14714;48.106;11.546;2024-03-08T10:06:05;19.90;46.40
27200;DHT22;14714;48.106;11.546;2024-03-08T10:08:41;19.10;49.00
27200;DHT22;14714;48.106;11.546;2024-03-08T10:11:14;18.00;50.00
27200;DHT22;14714;48.106;11.546;2024-03-08T10:13:45;17.20;52.30
27200;DHT22;14714;48.106;11.546;2024-03-08T10:16:16;16.90;53.40
27200;DHT22;14714;48.106;11.546;2024-03-08T10:18:48;16.60;53.60
27200;DHT22;14714;48.106;11.546;2024-03-08T10:21:17;15.90;55.30
27200;DHT22;14714;48.106;11.546;2024-03-08T10:23:47;15.00;57.30
27200;DHT22;14714;48.106;11.546;2024-03-08T10:26:17;14.20;59.30
27200;DHT22;14714;48.106;11.546;2024-03-08T10:28:48;13.60;61.70
27200;DHT22;14714;48.106;11.546;2024-03-08T10:31:18;13.30;63.00
27200;DHT22;14714;48.106;11.546;2024-03-08T10:33:47;13.10;65.70
27200;DHT22;14714;48.106;11.546;2024-03-08T10:36:19;13.00;65.60
27200;DHT22;14714;48.106;11.546;2024-03-08T10:38:52;12.90;66.40
27200;DHT22;14714;48.106;11.546;2024-03-08T10:41:21;12.50;67.40
27200;DHT22;14714;48.106;11.546;2024-03-08T10:44:11;12.20;68.60
27200;DHT22;14714;48.106;11.546;2024-03-08T10:47:01;11.70;69.40
27200;DHT22;14714;48.106;11.546;2024-03-08T10:49:38;11.40;70.80
27200;DHT22;14714;48.106;11.546;2024-03-08T10:52:11;11.30;72.00
27200;DHT22;14714;48.106;11.546;2024-03-08T10:54:42;11.30;72.10
27200;DHT22;14714;48.106;11.546;2024-03-08T10:57:13;11.20;72.30
27200;DHT22;14714;48.106;11.546;2024-03-08T10:59:43;11.30;73.50
27200;DHT22;14714;48.106;11.546;2024-03-08T11:02:17;11.60;72.30
27200;DHT22;14714;48.106;11.546;2024-03-08T11:04:50;11.90;71.80
27200;DHT22;14714;48.106;11.546;2024-03-08T11:07:21;12.40;71.30
27200;DHT22;14714;48.106;11.546;2024-03-08T11:09:52;12.80;68.90
27200;DHT22;14714;48.106;11.546;2024-03-08T11:12:26;13.20;68.20
27200;DHT22;14714;48.106;11.546;2024-03-08T11:15:00;13.50;66.30
27200;DHT22;14714;48.106;11.546;2024-03-08T11:20:04;14.30;64.00
27200;DHT22;14714;48.106;11.546;2024-03-08T11:25:33;14.50;61.90
27200;DHT22;14714;48.106;11.546;2024-03-08T11:28:15;14.60;63.50
27200;DHT22;14714;48.106;11.546;2024-03-08T11:33:30;14.40;61.90
27200;DHT22;14714;48.106;11.546;2024-03-08T11:36:19;14.30;62.20
27200;DHT22;14714;48.106;11.546;2024-03-08T11:38:51;14.10;63.00
27200;DHT22;14714;48.106;11.546;2024-03-08T11:41:22;13.60;67.00
27200;DHT22;14714;48.106;11.546;2024-03-08T11:44:03;13.20;65.20
27200;DHT22;14714;48.106;11.546;2024-03-08T11:46:35;12.90;66.60
27200;DHT22;14714;48.106;11.546;2024-03-08T11:49:06;12.50;67.20
27200;DHT22;14714;48.106;11.546;2024-03-08T11:51:36;12.20;67.80
27200;DHT22;14714;48.106;11.546;2024-03-08T11:54:11;11.80;68.50
27200;DHT22;14714;48.106;11.546;2024-03-08T11:56:39;11.60;69.50
27200;DHT22;14714;48.106;11.546;2024-03-08T11:59:12;11.40;71.10
27200;DHT22;14714;48.106;11.546;2024-03-08T12:01:42;11.30;73.40
27200;DHT22;14714;48.106;11.546;2024-03-08T12:04:12;11.20;73.40
27200;DHT22;14714;48.106;11.546;2024-03-08T12:06:41;11.10;74.40
27200;DHT22;14714;48.106;11.546;2024-03-08T12:09:11;11.00;74.10
27200;DHT22;14714;48.106;11.546;2024-03-08T12:11:42;10.90;74.60
27200;DHT22;14714;48.106;11.546;2024-03-08T12:14:11;10.80;76.00
27200;DHT22;14714;48.106;11.546;2024-03-08T12:16:39;10.70;75.70
27200;DHT22;14714;48.106;11.546;2024-03-08T12:19:08;10.70;77.30
27200;DHT22;14714;48.106;11.546;2024-03-08T12:21:37;10.60;76.60
27200;DHT22;14714;48.106;11.546;2024-03-08T12:24:17;10.50;76.80
27200;DHT22;14714;48.106;11.546;2024-03-08T12:26:49;10.40;78.10
27200;DHT22;14714;48.106;11.546;2024-03-08T12:29:26;10.20;77.90
27200;DHT22;14714;48.106;11.546;2024-03-08T12:31:57;10.10;77.30
27200;DHT22;14714;48.106;11.546;2024-03-08T12:34:27;10.10;79.50
27200;DHT22;14714;48.106;11.546;2024-03-08T12:36:58;10.00;78.40
27200;DHT22;14714;48.106;11.546;2024-03-08T12:39:34;10.00;78.40
27200;DHT22;14714;48.106;11.546;2024-03-08T12:42:03;10.00;80.00
27200;DHT22;14714;48.106;11.546;2024-03-08T12:44:32;10.00;79.70
27200;DHT22;14714;48.106;11.546;2024-03-08T12:47:04;9.90;80.10
27200;DHT22;14714;48.106;11.546;2024-03-08T12:49:33;9.90;80.40
27200;DHT22;14714;48.106;11.546;2024-03-08T12:52:02;9.90;81.20
27200;DHT22;14714;48.106;11.546;2024-03-08T12:54:33;9.90;81.20
27200;DHT22;14714;48.106;11.546;2024-03-08T12:57:26;9.80;81.50
27200;DHT22;14714;48.106;11.546;2024-03-08T13:01:20;9.90;80.60
27200;DHT22;14714;48.106;11.546;2024-03-08T13:04:25;9.90;80.70
27200;DHT22;14714;48.106;11.546;2024-03-08T13:07:27;9.90;81.90
27200;DHT22;14714;48.106;11.546;2024-03-08T13:11:10;9.90;80.80
27200;DHT22;14714;48.106;11.546;2024-03-08T13:15:01;9.90;81.20
27200;DHT22;14714;48.106;11.546;2024-03-08T13:17:50;9.90;81.00
27200;DHT22;14714;48.106;11.546;2024-03-08T13:20:19;9.80;81.30
27200;DHT22;14714;48.106;11.546;2024-03-08T13:23:00;9.80;81.40
27200;DHT22;14714;48.106;11.546;2024-03-08T13:25:31;9.80;81.30
27200;DHT22;14714;48.106;11.546;2024-03-08T13:28:01;9.80;81.40
27200;DHT22;14714;48.106;11.546;2024-03-08T13:30:30;9.80;80.90
27200;DHT22;14714;48.106;11.546;2024-03-08T13:32:59;9.90;82.20
27200;DHT22;14714;48.106;11.546;2024-03-08T13:35:28;9.90;81.40
27200;DHT22;14714;48.106;11.546;2024-03-08T13:37:58;9.90;80.60
27200;DHT22;14714;48.106;11.546;2024-03-08T13:40:26;9.90;80.00
27200;DHT22;14714;48.106;11.546;2024-03-08T13:42:58;9.90;79.60
27200;DHT22;14714;48.106;11.546;2024-03-08T13:45:29;9.90;79.80
27200;DHT22;14714;48.106;11.546;2024-03-08T13:48:03;9.90;81.00
27200;DHT22;14714;48.106;11.546;2024-03-08T13:51:04;9.80;79.20
27200;DHT22;14714;48.106;11.546;2024-03-08T13:54:16;9.90;80.30
27200;DHT22;14714;48.106;11.546;2024-03-08T13:57:40;9.90;80.60
27200;DHT22;14714;48.106;11.546;2024-03-08T14:01:03;10.00;81.70
27200;DHT22;14714;48.106;11.546;2024-03-08T14:03:39;10.00;81.50
27200;DHT22;14714;48.106;11.546;2024-03-08T14:06:09;10.00;80.80
27200;DHT22;14714;48.106;11.546;2024-03-08T14:08:36;10.00;80.00
27200;DHT22;14714;48.106;11.546;2024-03-08T14:11:05;9.90;81.10
27200;DHT22;14714;48.106;11.546;2024-03-08T14:13:44;9.90;81.60
27200;DHT22;14714;48.106;11.546;2024-03-08T14:16:12;10.00;81.90
27200;DHT22;14714;48.106;11.546;2024-03-08T14:18:39;9.90;81.40
27200;DHT22;14714;48.106;11.546;2024-03-08T14:21:06;10.00;81.60
27200;DHT22;14714;48.106;11.546;2024-03-08T14:23:35;9.90;81.00
27200;DHT22;14714;48.106;11.546;2024-03-08T14:26:06;9.80;80.70
27200;DHT22;14714;48.106;11.546;2024-03-08T14:28:35;9.80;80.40
27200;DHT22;14714;48.106;11.546;2024-03-08T14:31:02;9.70;81.40
27200;DHT22;14714;48.106;11.546;2024-03-08T14:33:33;9.80;81.40
27200;DHT22;14714;48.106;11.546;2024-03-08T14:36:00;9.80;82.00
27200;DHT22;14714;48.106;11.546;2024-03-08T14:38:28;9.70;82.40
27200;DHT22;14714;48.106;11.546;2024-03-08T14:40:55;9.70;82.20
27200;DHT22;14714;48.106;11.546;2024-03-08T14:43:22;9.60;82.40
27200;DHT22;14714;48.106;11.546;2024-03-08T14:45:51;9.60;83.60
27200;DHT22;14714;48.106;11.546;2024-03-08T14:48:19;9.60;82.70
27200;DHT22;14714;48.106;11.546;2024-03-08T14:50:46;9.50;83.30
27200;DHT22;14714;48.106;11.546;2024-03-08T14:53:14;9.50;82.70
27200;DHT22;14714;48.106;11.546;2024-03-08T14:55:43;9.50;82.30
27200;DHT22;14714;48.106;11.546;2024-03-08T14:58:13;9.50;82.30
27200;DHT22;14714;48.106;11.546;2024-03-08T15:00:41;9.40;82.70
27200;DHT22;14714;48.106;11.546;2024-03-08T15:03:09;9.40;83.50
27200;DHT22;14714;48.106;11.546;2024-03-08T15:05:40;9.50;84.10
27200;DHT22;14714;48.106;11.546;2024-03-08T15:08:14;9.50;84.60
27200;DHT22;14714;48.106;11.546;2024-03-08T15:10:47;9.50;83.30
27200;DHT22;14714;48.106;11.546;2024-03-08T15:13:22;9.50;83.40
27200;DHT22;14714;48.106;11.546;2024-03-08T15:15:50;9.50;84.20
27200;DHT22;14714;48.106;11.546;2024-03-08T15:18:25;9.40;83.30
27200;DHT22;14714;48.106;11.546;2024-03-08T15:20:53;9.40;83.70
27200;DHT22;14714;48.106;11.546;2024-03-08T15:23:20;9.40;83.50
27200;DHT22;14714;48.106;11.546;2024-03-08T15:25:56;9.40;83.60
27200;DHT22;14714;48.106;11.546;2024-03-08T15:28:59;9.40;84.60
27200;DHT22;14714;48.106;11.546;2024-03-08T15:31:27;9.40;84.40
27200;DHT22;14714;48.106;11.546;2024-03-08T15:33:54;9.30;83.30
27200;DHT22;14714;48.106;11.546;2024-03-08T15:36:28;9.30;83.10
27200;DHT22;14714;48.106;11.546;2024-03-08T15:38:57;9.20;83.40
27200;DHT22;14714;48.106;11.546;2024-03-08T15:41:26;9.20;84.40
27200;DHT22;14714;48.106;11.546;2024-03-08T15:43:55;9.20;84.20
27200;DHT22;14714;48.106;11.546;2024-03-08T15:46:24;9.20;84.40
27200;DHT22;14714;48.106;11.546;2024-03-08T15:48:53;9.20;84.10
27200;DHT22;14714;48.106;11.546;2024-03-08T15:51:22;9.10;85.30
27200;DHT22;14714;48.106;11.546;2024-03-08T15:53:50;9.10;84.40
27200;DHT22;14714;48.106;11.546;2024-03-08T15:56:23;9.00;84.10
27200;DHT22;14714;48.106;11.546;2024-03-08T15:58:52;9.00;83.60
27200;DHT22;14714;48.106;11.546;2024-03-08T16:01:22;9.00;84.40
27200;DHT22;14714;48.106;11.546;2024-03-08T16:03:52;8.90;84.70
27200;DHT22;14714;48.106;11.546;2024-03-08T16:06:22;8.90;85.20